createdAt,value
2023-03-26T00:01:52.076Z,6.94
2023-03-26T00:04:54.752Z,6.89
2023-03-26T00:07:57.518Z,6.89
2023-03-26T00:11:01.285Z,6.90
2023-03-26T00:14:05.894Z,6.92
2023-03-26T00:17:08.725Z,6.91
2023-03-26T00:20:11.810Z,6.88
2023-03-26T00:23:14.632Z,6.84
2023-03-26T00:26:17.650Z,6.77
2023-03-26T00:29:20.454Z,6.80
2023-03-26T00:32:28.010Z,6.80
2023-03-26T00:35:30.846Z,6.83
2023-03-26T00:38:39.072Z,6.78
2023-03-26T00:41:43.441Z,6.87
2023-03-26T00:44:46.535Z,6.87
2023-03-26T00:47:49.392Z,6.83
2023-03-26T00:50:52.189Z,6.72
2023-03-26T00:53:55.567Z,6.67
2023-03-26T00:56:58.262Z,6.61
2023-03-26T01:00:13.155Z,6.54
2023-03-26T01:03:26.939Z,6.47
2023-03-26T01:06:36.712Z,6.42
2023-03-26T01:09:45.850Z,6.44
2023-03-26T01:12:48.668Z,6.34
2023-03-26T01:15:53.131Z,6.34
2023-03-26T01:18:58.891Z,6.28
2023-03-26T01:22:01.865Z,6.26
2023-03-26T01:25:05.713Z,6.18
2023-03-26T01:28:12.735Z,6.13
2023-03-26T01:31:20.049Z,6.13
2023-03-26T01:34:30.754Z,6.07
2023-03-26T01:38:02.707Z,5.95
2023-03-26T01:41:24.084Z,5.82
2023-03-26T01:44:30.165Z,5.80
2023-03-26T01:47:35.024Z,5.86
2023-03-26T01:50:37.791Z,5.85
2023-03-26T01:53:48.482Z,5.72
2023-03-26T01:57:09.243Z,5.74
2023-03-26T02:00:22.798Z,5.68
2023-03-26T02:03:31.343Z,5.71
2023-03-26T02:06:49.642Z,5.55
2023-03-26T02:09:58.373Z,5.53
2023-03-26T02:13:01.569Z,5.70
2023-03-26T02:16:07.633Z,5.63
2023-03-26T02:19:15.971Z,5.32
2023-03-26T02:22:19.361Z,5.21
2023-03-26T02:25:23.592Z,5.16
2023-03-26T02:28:27.167Z,5.17
2023-03-26T02:31:30.291Z,5.13
2023-03-26T02:34:33.596Z,5.11
2023-03-26T02:37:36.435Z,5.02
2023-03-26T02:40:48.386Z,4.99
2023-03-26T02:43:51.766Z,5.02
2023-03-26T02:46:58.077Z,5.09
2023-03-26T02:50:22.243Z,5.15
2023-03-26T02:53:45.060Z,5.24
2023-03-26T02:57:11.264Z,5.10
2023-03-26T03:00:22.820Z,5.00
2023-03-26T03:03:27.759Z,5.05
2023-03-26T03:06:33.094Z,5.02
2023-03-26T03:09:36.104Z,4.99
2023-03-26T03:12:57.372Z,4.99
2023-03-26T03:16:00.113Z,5.05
2023-03-26T03:19:03.074Z,5.15
2023-03-26T03:22:12.492Z,5.18
2023-03-26T03:25:17.634Z,5.21
2023-03-26T03:28:22.677Z,5.31
2023-03-26T03:31:26.714Z,5.32
2023-03-26T03:34:34.253Z,5.18
2023-03-26T03:37:37.096Z,5.29
2023-03-26T03:40:44.275Z,5.26
2023-03-26T03:43:47.255Z,5.17
2023-03-26T03:46:57.222Z,5.30
2023-03-26T03:50:00.327Z,5.33
2023-03-26T03:53:05.816Z,5.33
2023-03-26T03:56:10.475Z,5.34
2023-03-26T03:59:51.708Z,5.36
2023-03-26T04:02:54.752Z,5.32
2023-03-26T04:06:02.317Z,5.29
2023-03-26T04:09:05.525Z,5.22
2023-03-26T04:12:08.383Z,5.05
2023-03-26T04:15:16.922Z,5.06
2023-03-26T04:18:26.403Z,4.93
2023-03-26T04:21:34.083Z,4.98
2023-03-26T04:24:40.297Z,4.91
2023-03-26T04:27:58.538Z,4.91
2023-03-26T04:31:29.572Z,4.92
2023-03-26T04:34:34.325Z,4.87
2023-03-26T04:37:47.828Z,4.85
2023-03-26T04:41:01.204Z,4.88
2023-03-26T04:44:36.949Z,4.80
2023-03-26T04:47:46.737Z,4.96
2023-03-26T04:50:50.460Z,5.02
2023-03-26T04:54:00.464Z,5.05
2023-03-26T04:57:39.478Z,5.13
2023-03-26T05:00:47.618Z,5.14
2023-03-26T05:03:50.655Z,5.21
2023-03-26T05:06:54.322Z,5.37
2023-03-26T05:10:12.693Z,5.57
2023-03-26T05:13:35.859Z,5.69
2023-03-26T05:16:44.977Z,5.79
2023-03-26T05:19:47.951Z,5.87
2023-03-26T05:22:51.028Z,6.05
2023-03-26T05:26:04.121Z,6.12
2023-03-26T05:29:07.280Z,6.24
2023-03-26T05:32:18.723Z,6.38
2023-03-26T05:35:22.963Z,6.47
2023-03-26T05:38:26.213Z,6.51
2023-03-26T05:41:29.315Z,6.60
2023-03-26T05:44:32.086Z,6.74
2023-03-26T05:47:39.327Z,6.87
2023-03-26T05:50:42.478Z,6.90
2023-03-26T05:53:45.844Z,7.00
2023-03-26T05:57:11.297Z,7.02
2023-03-26T06:00:43.382Z,7.18
2023-03-26T06:03:48.604Z,7.28
2023-03-26T06:06:54.812Z,7.38
2023-03-26T06:09:57.686Z,7.52
2023-03-26T06:13:00.430Z,7.59
2023-03-26T06:16:03.369Z,7.71
2023-03-26T06:19:09.388Z,7.91
2023-03-26T06:22:38.533Z,8.09
2023-03-26T06:25:51.755Z,8.23
2023-03-26T06:29:14.797Z,8.35
2023-03-26T06:32:26.321Z,8.42
2023-03-26T06:36:01.635Z,8.65
2023-03-26T06:39:07.644Z,8.77
2023-03-26T06:42:12.990Z,8.93
2023-03-26T06:45:33.431Z,8.95
2023-03-26T06:48:55.044Z,9.04
2023-03-26T06:52:16.562Z,9.04
2023-03-26T06:55:37.891Z,9.11
2023-03-26T06:58:58.181Z,9.38
2023-03-26T07:02:07.435Z,9.49
2023-03-26T07:05:29.070Z,9.64
2023-03-26T07:08:50.727Z,9.88
2023-03-26T07:12:12.362Z,10.10
2023-03-26T07:15:24.405Z,10.30
2023-03-26T07:18:30.288Z,10.53
2023-03-26T07:21:34.399Z,10.72
2023-03-26T07:24:42.003Z,11.01
2023-03-26T07:28:01.121Z,11.28
2023-03-26T07:31:30.825Z,11.62
2023-03-26T07:35:20.823Z,11.89
2023-03-26T07:39:13.098Z,12.06
2023-03-26T07:43:10.294Z,12.42
2023-03-26T07:46:29.348Z,12.57
2023-03-26T07:50:04.926Z,12.55
2023-03-26T07:53:23.390Z,12.38
2023-03-26T07:56:58.893Z,12.50
2023-03-26T08:00:22.353Z,12.28
2023-03-26T08:03:51.309Z,12.31
2023-03-26T08:07:45.199Z,11.98
2023-03-26T08:11:07.367Z,11.76
2023-03-26T08:14:41.108Z,11.92
2023-03-26T08:17:54.496Z,12.15
2023-03-26T08:21:11.316Z,12.41
2023-03-26T08:24:32.967Z,12.31
2023-03-26T08:27:43.436Z,12.67
2023-03-26T08:30:47.150Z,12.86
2023-03-26T08:33:50.225Z,12.94
2023-03-26T08:36:52.963Z,13.38
2023-03-26T08:39:56.064Z,13.60
2023-03-26T08:43:21.380Z,13.68
2023-03-26T08:46:26.916Z,13.81
2023-03-26T08:49:32.510Z,13.95
2023-03-26T08:52:41.908Z,14.11
2023-03-26T08:56:01.637Z,13.85
2023-03-26T08:59:34.785Z,13.90
2023-03-26T09:02:53.123Z,14.08
2023-03-26T09:06:33.145Z,14.45
2023-03-26T09:09:57.270Z,14.60
2023-03-26T09:13:22.970Z,14.41
2023-03-26T09:16:54.023Z,14.58
2023-03-26T09:20:24.311Z,14.85
2023-03-26T09:23:45.420Z,14.68
2023-03-26T09:26:59.689Z,14.66
2023-03-26T09:30:21.252Z,14.76
2023-03-26T09:33:49.681Z,14.86
2023-03-26T09:37:14.169Z,15.05
2023-03-26T09:40:19.292Z,15.09
2023-03-26T09:43:50.001Z,14.99
2023-03-26T09:47:31.942Z,15.25
2023-03-26T09:50:46.785Z,15.46
2023-03-26T09:54:10.511Z,15.43
2023-03-26T09:57:15.595Z,15.31
2023-03-26T10:00:24.603Z,15.54
2023-03-26T10:03:48.802Z,15.45
2023-03-26T10:07:01.475Z,15.88
2023-03-26T10:10:41.743Z,15.82
2023-03-26T10:14:03.910Z,15.68
2023-03-26T10:17:33.888Z,15.84
2023-03-26T10:21:01.301Z,15.91
2023-03-26T10:24:30.932Z,15.92
2023-03-26T10:27:55.146Z,16.13
2023-03-26T10:31:16.019Z,16.19
2023-03-26T10:34:29.417Z,16.21
2023-03-26T10:37:38.257Z,16.38
2023-03-26T10:40:48.851Z,16.28
2023-03-26T10:44:05.262Z,15.99
2023-03-26T10:47:31.330Z,16.59
2023-03-26T10:51:03.546Z,16.90
2023-03-26T10:54:30.671Z,17.32
2023-03-26T10:57:44.272Z,17.09
2023-03-26T11:00:56.224Z,17.12
2023-03-26T11:04:13.961Z,17.37
2023-03-26T11:07:30.414Z,17.23
2023-03-26T11:10:55.132Z,17.05
2023-03-26T11:14:02.751Z,17.01
2023-03-26T11:17:40.466Z,17.05
2023-03-26T11:21:18.820Z,17.31
2023-03-26T11:24:43.457Z,17.43
2023-03-26T11:28:05.895Z,17.16
2023-03-26T11:31:41.064Z,16.86
2023-03-26T11:35:05.995Z,16.56
2023-03-26T11:38:39.658Z,16.56
2023-03-26T11:41:45.754Z,16.38
2023-03-26T11:45:08.320Z,16.80
2023-03-26T11:48:19.394Z,16.62
2023-03-26T11:51:34.015Z,16.48
2023-03-26T11:54:37.958Z,16.70
2023-03-26T11:57:46.521Z,16.70
2023-03-26T12:00:53.012Z,17.55
2023-03-26T12:04:15.938Z,17.64
2023-03-26T12:07:22.776Z,17.40
2023-03-26T12:10:25.775Z,17.41
2023-03-26T12:13:38.323Z,17.33
2023-03-26T12:17:04.427Z,17.34
2023-03-26T12:20:22.832Z,17.27
2023-03-26T12:23:43.835Z,17.14
2023-03-26T12:26:46.877Z,16.93
2023-03-26T12:30:00.243Z,17.25
2023-03-26T12:33:27.165Z,17.48
2023-03-26T12:36:33.427Z,17.28
2023-03-26T12:40:06.537Z,17.45
2023-03-26T12:44:54.324Z,17.22
2023-03-26T12:48:00.155Z,17.70
2023-03-26T12:50:15.784Z,17.63
2023-03-26T12:53:21.954Z,17.52
2023-03-26T12:56:38.675Z,17.44
2023-03-26T13:00:08.888Z,17.62
2023-03-26T13:03:14.927Z,17.76
2023-03-26T13:06:59.288Z,17.58
2023-03-26T13:10:21.249Z,17.54
2023-03-26T13:13:44.368Z,17.63
2023-03-26T13:17:04.663Z,17.66
2023-03-26T13:20:16.427Z,17.68
2023-03-26T13:23:42.984Z,17.51
2023-03-26T13:27:04.270Z,17.71
2023-03-26T13:30:15.112Z,17.54
2023-03-26T13:33:44.487Z,17.87
2023-03-26T13:37:20.164Z,17.83
2023-03-26T13:40:37.110Z,18.14
2023-03-26T13:44:23.271Z,18.09
2023-03-26T13:47:29.302Z,18.06
2023-03-26T13:50:38.988Z,18.15
2023-03-26T13:53:47.848Z,18.31
2023-03-26T13:56:55.252Z,18.54
2023-03-26T14:00:06.256Z,18.77
2023-03-26T14:03:26.741Z,18.98
2023-03-26T14:06:42.460Z,18.39
2023-03-26T14:09:54.555Z,18.50
2023-03-26T14:13:04.359Z,18.09
2023-03-26T14:16:17.056Z,18.89
2023-03-26T14:19:51.177Z,18.61
2023-03-26T14:23:09.737Z,18.86
2023-03-26T14:26:43.673Z,18.71
2023-03-26T14:30:22.644Z,18.71
2023-03-26T14:33:46.583Z,18.42
2023-03-26T14:37:06.009Z,17.91
2023-03-26T14:40:45.982Z,18.10
2023-03-26T14:44:17.842Z,18.02
2023-03-26T14:47:22.104Z,17.64
2023-03-26T14:51:09.392Z,17.67
2023-03-26T14:54:25.414Z,17.98
2023-03-26T14:58:09.510Z,17.99
2023-03-26T15:01:34.119Z,17.57
2023-03-26T15:04:58.186Z,17.34
2023-03-26T15:08:33.795Z,17.21
2023-03-26T15:12:12.238Z,17.01
2023-03-26T15:15:35.646Z,17.07
2023-03-26T15:18:56.741Z,16.92
2023-03-26T15:22:06.072Z,16.98
2023-03-26T15:25:11.430Z,17.08
2023-03-26T15:28:16.956Z,16.88
2023-03-26T15:31:57.748Z,16.89
2023-03-26T15:35:13.237Z,16.84
2023-03-26T15:38:34.442Z,16.75
2023-03-26T15:41:52.277Z,16.82
2023-03-26T15:45:30.173Z,16.62
2023-03-26T15:48:35.769Z,16.55
2023-03-26T15:51:47.567Z,16.35
2023-03-26T15:55:04.137Z,16.27
2023-03-26T15:58:28.779Z,16.33
2023-03-26T16:01:46.505Z,16.07
2023-03-26T16:05:09.592Z,16.04
2023-03-26T16:08:38.687Z,16.10
2023-03-26T16:12:16.858Z,15.99
2023-03-26T16:15:28.438Z,15.96
2023-03-26T16:18:35.958Z,15.86
2023-03-26T16:21:45.896Z,15.74
2023-03-26T16:25:28.566Z,15.74
2023-03-26T16:28:56.870Z,15.59
2023-03-26T16:32:11.438Z,15.44
2023-03-26T16:35:14.315Z,15.23
2023-03-26T16:38:18.695Z,15.10
2023-03-26T16:41:27.140Z,15.02
2023-03-26T16:44:39.099Z,14.89
2023-03-26T16:48:10.459Z,14.81
2023-03-26T16:51:34.356Z,14.64
2023-03-26T16:54:52.621Z,14.51
2023-03-26T16:58:23.256Z,14.44
2023-03-26T17:01:48.401Z,14.31
2023-03-26T17:05:01.169Z,14.18
2023-03-26T17:08:35.606Z,14.09
2023-03-26T17:11:57.729Z,14.04
2023-03-26T17:15:16.985Z,14.02
2023-03-26T17:18:49.261Z,14.05
2023-03-26T17:22:14.027Z,14.06
2023-03-26T17:25:34.259Z,14.00
2023-03-26T17:29:28.295Z,13.95
2023-03-26T17:32:54.491Z,13.88
2023-03-26T17:36:12.768Z,13.81
2023-03-26T17:39:21.887Z,13.85
2023-03-26T17:42:36.226Z,13.80
2023-03-26T17:45:42.194Z,13.65
2023-03-26T17:48:49.437Z,13.57
2023-03-26T17:52:01.089Z,13.51
2023-03-26T17:55:04.704Z,13.46
2023-03-26T17:58:27.217Z,13.44
2023-03-26T18:01:34.664Z,13.38
2023-03-26T18:04:42.264Z,13.37
2023-03-26T18:08:12.748Z,13.41
2023-03-26T18:11:36.242Z,13.52
2023-03-26T18:15:18.390Z,13.55
2023-03-26T18:18:53.561Z,13.56
2023-03-26T18:22:03.764Z,13.53
2023-03-26T18:25:07.121Z,13.49
2023-03-26T18:28:14.380Z,13.49
2023-03-26T18:31:19.493Z,13.42
2023-03-26T18:34:24.508Z,13.47
2023-03-26T18:37:34.784Z,13.42
2023-03-26T18:40:42.676Z,13.37
2023-03-26T18:43:45.830Z,13.32
2023-03-26T18:46:49.137Z,13.27
2023-03-26T18:49:55.772Z,13.23
2023-03-26T18:53:00.656Z,13.16
2023-03-26T18:56:27.714Z,13.19
2023-03-26T18:59:35.234Z,13.12
2023-03-26T19:02:39.194Z,13.07
2023-03-26T19:05:42.165Z,13.04
2023-03-26T19:08:47.122Z,13.17
2023-03-26T19:11:55.921Z,13.04
2023-03-26T19:15:15.618Z,12.96
2023-03-26T19:18:22.987Z,12.80
2023-03-26T19:21:26.298Z,12.73
2023-03-26T19:24:29.803Z,12.53
2023-03-26T19:27:33.143Z,12.47
2023-03-26T19:30:41.978Z,12.40
2023-03-26T19:33:53.418Z,12.48
2023-03-26T19:37:01.247Z,12.50
2023-03-26T19:40:19.249Z,12.44
2023-03-26T19:43:23.490Z,12.46
2023-03-26T19:46:28.755Z,12.06
2023-03-26T19:49:42.078Z,11.94
2023-03-26T19:52:45.304Z,12.02
2023-03-26T19:56:09.759Z,12.09
2023-03-26T19:59:14.329Z,12.14
2023-03-26T20:02:18.210Z,12.19
2023-03-26T20:05:27.001Z,12.01
2023-03-26T20:08:30.073Z,11.75
2023-03-26T20:11:38.052Z,11.59
2023-03-26T20:14:43.477Z,11.65
2023-03-26T20:17:50.651Z,11.76
2023-03-26T20:20:54.438Z,11.55
2023-03-26T20:23:59.305Z,11.22
2023-03-26T20:27:02.299Z,10.97
2023-03-26T20:30:07.228Z,11.03
2023-03-26T20:33:26.833Z,11.22
2023-03-26T20:36:32.999Z,11.30
2023-03-26T20:39:37.903Z,11.21
2023-03-26T20:42:42.712Z,11.21
2023-03-26T20:45:46.115Z,11.12
2023-03-26T20:48:49.551Z,10.72
2023-03-26T20:51:52.826Z,10.48
2023-03-26T20:54:56.168Z,10.35
2023-03-26T20:57:59.661Z,10.18
2023-03-26T21:01:03.069Z,10.10
2023-03-26T21:04:06.651Z,10.11
2023-03-26T21:07:17.679Z,10.11
2023-03-26T21:10:25.494Z,10.04
2023-03-26T21:13:43.008Z,10.06
2023-03-26T21:16:46.196Z,10.16
2023-03-26T21:19:49.866Z,10.16
2023-03-26T21:23:16.816Z,10.12
2023-03-26T21:26:41.651Z,10.05
2023-03-26T21:29:45.048Z,10.14
2023-03-26T21:32:48.699Z,10.15
2023-03-26T21:35:57.140Z,10.10
2023-03-26T21:39:00.331Z,10.01
2023-03-26T21:42:04.663Z,10.01
2023-03-26T21:45:09.569Z,10.08
2023-03-26T21:48:12.932Z,10.06
2023-03-26T21:51:17.906Z,10.11
2023-03-26T21:54:29.575Z,10.08
2023-03-26T21:57:34.838Z,10.03
2023-03-26T22:00:50.770Z,9.97
2023-03-26T22:04:15.141Z,9.89
2023-03-26T22:07:23.363Z,9.92
2023-03-26T22:10:27.226Z,9.92
2023-03-26T22:13:31.093Z,9.85
2023-03-26T22:16:33.936Z,9.74
2023-03-26T22:19:37.280Z,9.83
2023-03-26T22:22:48.854Z,9.86
2023-03-26T22:25:52.256Z,9.87
2023-03-26T22:28:55.123Z,9.68
2023-03-26T22:31:57.977Z,9.61
2023-03-26T22:35:01.259Z,9.59
2023-03-26T22:38:05.179Z,9.74
2023-03-26T22:41:08.851Z,9.79
2023-03-26T22:44:19.612Z,9.75
2023-03-26T22:47:22.804Z,9.66
2023-03-26T22:50:27.192Z,9.70
2023-03-26T22:53:31.013Z,9.68
2023-03-26T22:56:33.837Z,9.72
2023-03-26T22:59:36.810Z,9.74
2023-03-26T23:02:40.539Z,9.55
2023-03-26T23:05:43.344Z,9.46
2023-03-26T23:08:46.432Z,9.30
2023-03-26T23:11:49.260Z,9.23
2023-03-26T23:14:53.094Z,9.14
2023-03-26T23:17:58.953Z,9.08
2023-03-26T23:21:01.916Z,9.03
2023-03-26T23:24:05.238Z,9.09
2023-03-26T23:27:08.046Z,9.18
2023-03-26T23:30:11.613Z,9.22
2023-03-26T23:33:15.002Z,9.32
2023-03-26T23:36:19.698Z,9.25
2023-03-26T23:39:22.409Z,9.19
2023-03-26T23:42:28.265Z,9.07
2023-03-26T23:45:31.800Z,9.01
2023-03-26T23:48:34.752Z,9.04
2023-03-26T23:51:38.211Z,9.09
2023-03-26T23:54:42.568Z,9.06
2023-03-26T23:57:45.306Z,9.08
